sensor_id;sensor_type;location;lat;lon;timestamp;P1;durP1;ratioP1;P2;durP2;ratioP2
19087;SDS011;9676;50.916;13.352;2023-03-11T00:00:42;9.00;;;8.50;;
19087;SDS011;9676;50.916;13.352;2023-03-11T00:03:32;9.40;;;8.80;;
19087;SDS011;9676;50.916;13.352;2023-03-11T00:06:19;9.40;;;8.80;;
19087;SDS011;9676;50.916;13.352;2023-03-11T00:09:07;9.13;;;8.63;;
19087;SDS011;9676;50.916;13.352;2023-03-11T00:11:58;9.37;;;8.77;;
19087;SDS011;9676;50.916;13.352;2023-03-11T00:14:47;9.20;;;8.70;;
19087;SDS011;9676;50.916;13.352;2023-03-11T00:17:37;9.27;;;8.70;;
19087;SDS011;9676;50.916;13.352;2023-03-11T00:20:26;9.47;;;8.87;;
19087;SDS011;9676;50.916;13.352;2023-03-11T00:23:15;9.33;;;8.70;;
19087;SDS011;9676;50.916;13.352;2023-03-11T00:26:04;9.20;;;8.70;;
19087;SDS011;9676;50.916;13.352;2023-03-11T00:28:55;9.37;;;8.77;;
19087;SDS011;9676;50.916;13.352;2023-03-11T00:31:44;9.60;;;8.90;;
19087;SDS011;9676;50.916;13.352;2023-03-11T00:34:34;9.50;;;8.90;;
19087;SDS011;9676;50.916;13.352;2023-03-11T00:37:23;9.40;;;8.80;;
19087;SDS011;9676;50.916;13.352;2023-03-11T00:40:13;9.60;;;9.00;;
19087;SDS011;9676;50.916;13.352;2023-03-11T00:43:05;9.40;;;8.80;;
19087;SDS011;9676;50.916;13.352;2023-03-11T00:45:57;9.80;;;9.10;;
19087;SDS011;9676;50.916;13.352;2023-03-11T00:48:46;9.90;;;9.20;;
19087;SDS011;9676;50.916;13.352;2023-03-11T00:51:38;9.63;;;9.00;;
19087;SDS011;9676;50.916;13.352;2023-03-11T00:54:27;9.50;;;8.90;;
19087;SDS011;9676;50.916;13.352;2023-03-11T00:57:15;9.20;;;8.60;;
19087;SDS011;9676;50.916;13.352;2023-03-11T01:00:03;9.50;;;8.90;;
19087;SDS011;9676;50.916;13.352;2023-03-11T01:02:59;9.40;;;8.80;;
19087;SDS011;9676;50.916;13.352;2023-03-11T01:05:49;9.60;;;9.00;;
19087;SDS011;9676;50.916;13.352;2023-03-11T01:08:38;9.67;;;9.07;;
19087;SDS011;9676;50.916;13.352;2023-03-11T01:11:29;9.90;;;9.20;;
19087;SDS011;9676;50.916;13.352;2023-03-11T01:14:19;9.70;;;9.00;;
19087;SDS011;9676;50.916;13.352;2023-03-11T01:17:08;9.53;;;8.90;;
19087;SDS011;9676;50.916;13.352;2023-03-11T01:19:59;10.30;;;9.53;;
19087;SDS011;9676;50.916;13.352;2023-03-11T01:22:49;9.83;;;9.13;;
19087;SDS011;9676;50.916;13.352;2023-03-11T01:25:38;9.90;;;9.20;;
19087;SDS011;9676;50.916;13.352;2023-03-11T01:28:27;9.90;;;9.20;;
19087;SDS011;9676;50.916;13.352;2023-03-11T01:31:18;9.80;;;9.10;;
19087;SDS011;9676;50.916;13.352;2023-03-11T01:34:07;10.13;;;9.43;;
19087;SDS011;9676;50.916;13.352;2023-03-11T01:36:58;9.70;;;9.00;;
19087;SDS011;9676;50.916;13.352;2023-03-11T01:39:48;9.90;;;9.20;;
19087;SDS011;9676;50.916;13.352;2023-03-11T01:42:37;9.70;;;9.00;;
19087;SDS011;9676;50.916;13.352;2023-03-11T01:45:32;9.60;;;8.90;;
19087;SDS011;9676;50.916;13.352;2023-03-11T01:48:31;9.90;;;9.20;;
19087;SDS011;9676;50.916;13.352;2023-03-11T01:51:22;9.87;;;9.17;;
19087;SDS011;9676;50.916;13.352;2023-03-11T01:54:19;9.60;;;9.00;;
19087;SDS011;9676;50.916;13.352;2023-03-11T01:57:12;9.90;;;9.20;;
19087;SDS011;9676;50.916;13.352;2023-03-11T02:00:03;10.23;;;9.43;;
19087;SDS011;9676;50.916;13.352;2023-03-11T02:03:00;9.60;;;9.00;;
19087;SDS011;9676;50.916;13.352;2023-03-11T02:05:56;10.00;;;9.20;;
19087;SDS011;9676;50.916;13.352;2023-03-11T02:08:49;9.90;;;9.20;;
19087;SDS011;9676;50.916;13.352;2023-03-11T02:11:41;9.83;;;9.13;;
19087;SDS011;9676;50.916;13.352;2023-03-11T02:14:32;9.77;;;9.07;;
19087;SDS011;9676;50.916;13.352;2023-03-11T02:17:23;9.87;;;9.17;;
19087;SDS011;9676;50.916;13.352;2023-03-11T02:20:15;9.80;;;9.10;;
19087;SDS011;9676;50.916;13.352;2023-03-11T02:23:14;9.40;;;8.80;;
19087;SDS011;9676;50.916;13.352;2023-03-11T02:26:08;9.67;;;9.00;;
19087;SDS011;9676;50.916;13.352;2023-03-11T02:29:06;9.70;;;9.07;;
19087;SDS011;9676;50.916;13.352;2023-03-11T02:31:59;9.50;;;8.90;;
19087;SDS011;9676;50.916;13.352;2023-03-11T02:34:54;9.50;;;8.90;;
19087;SDS011;9676;50.916;13.352;2023-03-11T02:37:45;9.30;;;8.70;;
19087;SDS011;9676;50.916;13.352;2023-03-11T02:40:40;9.23;;;8.67;;
19087;SDS011;9676;50.916;13.352;2023-03-11T02:43:42;9.50;;;8.90;;
19087;SDS011;9676;50.916;13.352;2023-03-11T02:46:37;9.27;;;8.73;;
19087;SDS011;9676;50.916;13.352;2023-03-11T02:49:30;9.50;;;8.90;;
19087;SDS011;9676;50.916;13.352;2023-03-11T02:52:20;9.53;;;8.90;;
19087;SDS011;9676;50.916;13.352;2023-03-11T02:55:10;9.50;;;8.80;;
19087;SDS011;9676;50.916;13.352;2023-03-11T02:58:00;9.30;;;8.70;;
19087;SDS011;9676;50.916;13.352;2023-03-11T03:00:50;9.50;;;8.90;;
19087;SDS011;9676;50.916;13.352;2023-03-11T03:03:41;9.20;;;8.70;;
19087;SDS011;9676;50.916;13.352;2023-03-11T03:06:30;9.50;;;8.90;;
19087;SDS011;9676;50.916;13.352;2023-03-11T03:09:20;9.33;;;8.73;;
19087;SDS011;9676;50.916;13.352;2023-03-11T03:12:09;9.20;;;8.70;;
19087;SDS011;9676;50.916;13.352;2023-03-11T03:14:59;9.20;;;8.70;;
19087;SDS011;9676;50.916;13.352;2023-03-11T03:17:49;9.60;;;8.90;;
19087;SDS011;9676;50.916;13.352;2023-03-11T03:20:40;9.20;;;8.70;;
19087;SDS011;9676;50.916;13.352;2023-03-11T03:23:30;9.60;;;9.00;;
19087;SDS011;9676;50.916;13.352;2023-03-11T03:26:23;9.40;;;8.80;;
19087;SDS011;9676;50.916;13.352;2023-03-11T03:29:13;9.40;;;8.80;;
19087;SDS011;9676;50.916;13.352;2023-03-11T03:32:03;9.23;;;8.70;;
19087;SDS011;9676;50.916;13.352;2023-03-11T03:34:54;9.50;;;8.90;;
19087;SDS011;9676;50.916;13.352;2023-03-11T03:37:57;9.50;;;8.90;;
19087;SDS011;9676;50.916;13.352;2023-03-11T03:40:47;9.83;;;9.17;;
19087;SDS011;9676;50.916;13.352;2023-03-11T03:43:39;9.50;;;8.80;;
19087;SDS011;9676;50.916;13.352;2023-03-11T03:46:29;9.53;;;8.93;;
19087;SDS011;9676;50.916;13.352;2023-03-11T03:49:19;9.50;;;8.90;;
19087;SDS011;9676;50.916;13.352;2023-03-11T03:52:08;9.53;;;8.93;;
19087;SDS011;9676;50.916;13.352;2023-03-11T03:55:00;9.57;;;8.97;;
19087;SDS011;9676;50.916;13.352;2023-03-11T03:57:49;9.50;;;8.90;;
19087;SDS011;9676;50.916;13.352;2023-03-11T04:00:43;9.57;;;8.90;;
19087;SDS011;9676;50.916;13.352;2023-03-11T04:03:33;9.90;;;9.20;;
19087;SDS011;9676;50.916;13.352;2023-03-11T04:06:27;9.90;;;9.20;;
19087;SDS011;9676;50.916;13.352;2023-03-11T04:09:21;10.10;;;9.30;;
19087;SDS011;9676;50.916;13.352;2023-03-11T04:12:13;9.80;;;9.10;;
19087;SDS011;9676;50.916;13.352;2023-03-11T04:15:06;9.77;;;9.13;;
19087;SDS011;9676;50.916;13.352;2023-03-11T04:17:57;9.60;;;9.00;;
19087;SDS011;9676;50.916;13.352;2023-03-11T04:20:46;10.00;;;9.30;;
19087;SDS011;9676;50.916;13.352;2023-03-11T04:23:36;10.00;;;9.30;;
19087;SDS011;9676;50.916;13.352;2023-03-11T04:26:26;9.80;;;9.10;;
19087;SDS011;9676;50.916;13.352;2023-03-11T04:29:17;10.23;;;9.47;;
19087;SDS011;9676;50.916;13.352;2023-03-11T04:32:10;10.23;;;9.43;;
19087;SDS011;9676;50.916;13.352;2023-03-11T04:35:01;10.07;;;9.37;;
19087;SDS011;9676;50.916;13.352;2023-03-11T04:37:50;10.37;;;9.57;;
19087;SDS011;9676;50.916;13.352;2023-03-11T04:40:40;10.33;;;9.53;;
19087;SDS011;9676;50.916;13.352;2023-03-11T04:43:30;10.30;;;9.50;;
19087;SDS011;9676;50.916;13.352;2023-03-11T04:46:22;9.90;;;9.20;;
19087;SDS011;9676;50.916;13.352;2023-03-11T04:49:12;10.07;;;9.37;;
19087;SDS011;9676;50.916;13.352;2023-03-11T04:52:02;10.50;;;9.70;;
19087;SDS011;9676;50.916;13.352;2023-03-11T04:54:52;10.00;;;9.30;;
19087;SDS011;9676;50.916;13.352;2023-03-11T04:57:42;10.23;;;9.47;;
19087;SDS011;9676;50.916;13.352;2023-03-11T05:00:33;10.50;;;9.70;;
19087;SDS011;9676;50.916;13.352;2023-03-11T05:03:28;10.33;;;9.47;;
19087;SDS011;9676;50.916;13.352;2023-03-11T05:06:18;10.50;;;9.70;;
19087;SDS011;9676;50.916;13.352;2023-03-11T05:09:07;10.30;;;9.50;;
19087;SDS011;9676;50.916;13.352;2023-03-11T05:11:59;10.60;;;9.80;;
19087;SDS011;9676;50.916;13.352;2023-03-11T05:14:50;10.20;;;9.50;;
19087;SDS011;9676;50.916;13.352;2023-03-11T05:17:40;10.50;;;9.63;;
19087;SDS011;9676;50.916;13.352;2023-03-11T05:20:31;11.30;;;10.30;;
19087;SDS011;9676;50.916;13.352;2023-03-11T05:23:21;11.00;;;10.00;;
19087;SDS011;9676;50.916;13.352;2023-03-11T05:26:11;11.37;;;10.37;;
19087;SDS011;9676;50.916;13.352;2023-03-11T05:29:02;11.20;;;10.30;;
19087;SDS011;9676;50.916;13.352;2023-03-11T05:31:53;11.20;;;10.30;;
19087;SDS011;9676;50.916;13.352;2023-03-11T05:34:44;11.37;;;10.37;;
19087;SDS011;9676;50.916;13.352;2023-03-11T05:37:36;11.33;;;10.33;;
19087;SDS011;9676;50.916;13.352;2023-03-11T05:40:26;11.10;;;10.20;;
19087;SDS011;9676;50.916;13.352;2023-03-11T05:43:16;11.43;;;10.33;;
19087;SDS011;9676;50.916;13.352;2023-03-11T05:46:11;11.13;;;10.23;;
19087;SDS011;9676;50.916;13.352;2023-03-11T05:49:01;11.27;;;10.20;;
19087;SDS011;9676;50.916;13.352;2023-03-11T05:51:50;11.60;;;10.50;;
19087;SDS011;9676;50.916;13.352;2023-03-11T05:54:49;11.50;;;10.50;;
19087;SDS011;9676;50.916;13.352;2023-03-11T05:57:42;10.77;;;9.90;;
19087;SDS011;9676;50.916;13.352;2023-03-11T06:00:32;12.07;;;10.97;;
19087;SDS011;9676;50.916;13.352;2023-03-11T06:03:23;11.50;;;10.50;;
19087;SDS011;9676;50.916;13.352;2023-03-11T06:06:12;12.07;;;10.97;;
19087;SDS011;9676;50.916;13.352;2023-03-11T06:09:02;11.60;;;10.60;;
19087;SDS011;9676;50.916;13.352;2023-03-11T06:11:54;11.73;;;10.63;;
19087;SDS011;9676;50.916;13.352;2023-03-11T06:14:48;11.70;;;10.70;;
19087;SDS011;9676;50.916;13.352;2023-03-11T06:17:38;12.00;;;10.90;;
19087;SDS011;9676;50.916;13.352;2023-03-11T06:20:28;11.60;;;10.60;;
19087;SDS011;9676;50.916;13.352;2023-03-11T06:23:17;11.17;;;10.20;;
19087;SDS011;9676;50.916;13.352;2023-03-11T06:26:08;11.30;;;10.30;;
19087;SDS011;9676;50.916;13.352;2023-03-11T06:29:03;11.70;;;10.60;;
19087;SDS011;9676;50.916;13.352;2023-03-11T06:31:56;12.63;;;11.33;;
19087;SDS011;9676;50.916;13.352;2023-03-11T06:34:48;11.77;;;10.73;;
19087;SDS011;9676;50.916;13.352;2023-03-11T06:37:40;11.20;;;10.30;;
19087;SDS011;9676;50.916;13.352;2023-03-11T06:40:30;12.07;;;11.00;;
19087;SDS011;9676;50.916;13.352;2023-03-11T06:43:20;12.13;;;11.00;;
19087;SDS011;9676;50.916;13.352;2023-03-11T06:46:12;11.07;;;10.07;;
19087;SDS011;9676;50.916;13.352;2023-03-11T06:49:05;12.00;;;10.90;;
19087;SDS011;9676;50.916;13.352;2023-03-11T06:51:55;11.70;;;10.70;;
19087;SDS011;9676;50.916;13.352;2023-03-11T06:54:45;12.20;;;11.10;;
19087;SDS011;9676;50.916;13.352;2023-03-11T06:57:36;11.60;;;10.60;;
19087;SDS011;9676;50.916;13.352;2023-03-11T07:00:28;11.57;;;10.53;;
19087;SDS011;9676;50.916;13.352;2023-03-11T07:03:20;11.90;;;10.80;;
19087;SDS011;9676;50.916;13.352;2023-03-11T07:06:10;12.37;;;11.27;;
19087;SDS011;9676;50.916;13.352;2023-03-11T07:09:01;11.97;;;10.87;;
19087;SDS011;9676;50.916;13.352;2023-03-11T07:11:52;12.07;;;10.97;;
19087;SDS011;9676;50.916;13.352;2023-03-11T07:14:53;12.70;;;11.60;;
19087;SDS011;9676;50.916;13.352;2023-03-11T07:17:43;12.43;;;11.23;;
19087;SDS011;9676;50.916;13.352;2023-03-11T07:20:34;12.80;;;11.53;;
19087;SDS011;9676;50.916;13.352;2023-03-11T07:23:23;12.87;;;11.70;;
19087;SDS011;9676;50.916;13.352;2023-03-11T07:26:13;12.00;;;10.90;;
19087;SDS011;9676;50.916;13.352;2023-03-11T07:29:04;12.17;;;11.07;;
19087;SDS011;9676;50.916;13.352;2023-03-11T07:31:53;12.17;;;11.07;;
19087;SDS011;9676;50.916;13.352;2023-03-11T07:34:43;12.40;;;11.30;;
19087;SDS011;9676;50.916;13.352;2023-03-11T07:37:33;12.80;;;11.60;;
19087;SDS011;9676;50.916;13.352;2023-03-11T07:40:21;12.30;;;11.10;;
19087;SDS011;9676;50.916;13.352;2023-03-11T07:43:09;12.07;;;11.00;;
19087;SDS011;9676;50.916;13.352;2023-03-11T07:46:01;12.00;;;10.90;;
19087;SDS011;9676;50.916;13.352;2023-03-11T07:48:53;12.23;;;11.10;;
19087;SDS011;9676;50.916;13.352;2023-03-11T07:51:43;12.70;;;11.40;;
19087;SDS011;9676;50.916;13.352;2023-03-11T07:54:32;12.87;;;11.67;;
19087;SDS011;9676;50.916;13.352;2023-03-11T07:57:20;12.17;;;11.07;;
19087;SDS011;9676;50.916;13.352;2023-03-11T08:00:10;11.57;;;10.57;;
19087;SDS011;9676;50.916;13.352;2023-03-11T08:02:59;12.70;;;11.40;;
19087;SDS011;9676;50.916;13.352;2023-03-11T08:05:48;11.50;;;10.50;;
19087;SDS011;9676;50.916;13.352;2023-03-11T08:08:37;11.90;;;10.80;;
19087;SDS011;9676;50.916;13.352;2023-03-11T08:11:28;12.10;;;11.03;;
19087;SDS011;9676;50.916;13.352;2023-03-11T08:14:16;11.97;;;10.97;;
19087;SDS011;9676;50.916;13.352;2023-03-11T08:17:06;12.13;;;11.10;;
19087;SDS011;9676;50.916;13.352;2023-03-11T08:19:55;12.10;;;11.00;;
19087;SDS011;9676;50.916;13.352;2023-03-11T08:22:42;12.43;;;11.23;;
19087;SDS011;9676;50.916;13.352;2023-03-11T08:25:43;11.47;;;10.50;;
19087;SDS011;9676;50.916;13.352;2023-03-11T08:28:32;11.30;;;10.30;;
19087;SDS011;9676;50.916;13.352;2023-03-11T08:31:23;11.43;;;10.43;;
19087;SDS011;9676;50.916;13.352;2023-03-11T08:34:13;11.43;;;10.43;;
19087;SDS011;9676;50.916;13.352;2023-03-11T08:37:01;11.63;;;10.63;;
19087;SDS011;9676;50.916;13.352;2023-03-11T08:39:51;11.93;;;10.90;;
19087;SDS011;9676;50.916;13.352;2023-03-11T08:42:40;12.67;;;11.37;;
19087;SDS011;9676;50.916;13.352;2023-03-11T08:45:31;11.17;;;10.27;;
19087;SDS011;9676;50.916;13.352;2023-03-11T08:48:22;11.37;;;10.40;;
19087;SDS011;9676;50.916;13.352;2023-03-11T08:51:10;11.27;;;10.27;;
19087;SDS011;9676;50.916;13.352;2023-03-11T08:54:01;11.73;;;10.73;;
19087;SDS011;9676;50.916;13.352;2023-03-11T08:56:49;11.87;;;10.70;;
19087;SDS011;9676;50.916;13.352;2023-03-11T08:59:37;11.23;;;10.23;;
19087;SDS011;9676;50.916;13.352;2023-03-11T09:02:27;11.90;;;10.80;;
19087;SDS011;9676;50.916;13.352;2023-03-11T09:05:15;11.93;;;10.83;;
19087;SDS011;9676;50.916;13.352;2023-03-11T09:08:03;11.37;;;10.37;;
19087;SDS011;9676;50.916;13.352;2023-03-11T09:10:53;11.80;;;10.80;;
19087;SDS011;9676;50.916;13.352;2023-03-11T09:13:41;11.80;;;10.80;;
19087;SDS011;9676;50.916;13.352;2023-03-11T09:16:30;11.80;;;10.70;;
19087;SDS011;9676;50.916;13.352;2023-03-11T09:19:19;11.67;;;10.60;;
19087;SDS011;9676;50.916;13.352;2023-03-11T09:22:09;11.20;;;10.20;;
19087;SDS011;9676;50.916;13.352;2023-03-11T09:24:56;11.30;;;10.27;;
19087;SDS011;9676;50.916;13.352;2023-03-11T09:27:46;11.27;;;10.27;;
19087;SDS011;9676;50.916;13.352;2023-03-11T09:30:33;11.50;;;10.50;;
19087;SDS011;9676;50.916;13.352;2023-03-11T09:33:22;11.60;;;10.60;;
19087;SDS011;9676;50.916;13.352;2023-03-11T09:36:12;12.33;;;11.23;;
19087;SDS011;9676;50.916;13.352;2023-03-11T09:39:04;11.70;;;10.70;;
19087;SDS011;9676;50.916;13.352;2023-03-11T09:41:52;11.63;;;10.53;;
19087;SDS011;9676;50.916;13.352;2023-03-11T09:44:48;11.20;;;10.20;;
19087;SDS011;9676;50.916;13.352;2023-03-11T09:47:46;11.60;;;10.60;;
19087;SDS011;9676;50.916;13.352;2023-03-11T09:50:51;11.60;;;10.60;;
19087;SDS011;9676;50.916;13.352;2023-03-11T09:53:47;11.30;;;10.30;;
19087;SDS011;9676;50.916;13.352;2023-03-11T09:56:43;12.27;;;11.17;;
19087;SDS011;9676;50.916;13.352;2023-03-11T09:59:32;11.50;;;10.40;;
19087;SDS011;9676;50.916;13.352;2023-03-11T10:02:24;12.00;;;10.90;;
19087;SDS011;9676;50.916;13.352;2023-03-11T10:05:14;11.97;;;10.93;;
19087;SDS011;9676;50.916;13.352;2023-03-11T10:08:10;12.00;;;10.90;;
19087;SDS011;9676;50.916;13.352;2023-03-11T10:11:23;12.40;;;11.23;;
19087;SDS011;9676;50.916;13.352;2023-03-11T10:14:36;12.47;;;11.23;;
19087;SDS011;9676;50.916;13.352;2023-03-11T10:17:42;11.80;;;10.70;;
19087;SDS011;9676;50.916;13.352;2023-03-11T10:20:51;11.37;;;10.37;;
19087;SDS011;9676;50.916;13.352;2023-03-11T10:23:50;11.50;;;10.50;;
19087;SDS011;9676;50.916;13.352;2023-03-11T10:26:55;11.37;;;10.37;;
19087;SDS011;9676;50.916;13.352;2023-03-11T10:29:51;11.70;;;10.70;;
19087;SDS011;9676;50.916;13.352;2023-03-11T10:32:47;12.00;;;10.90;;
19087;SDS011;9676;50.916;13.352;2023-03-11T10:35:41;11.67;;;10.67;;
19087;SDS011;9676;50.916;13.352;2023-03-11T10:38:33;12.00;;;10.90;;
19087;SDS011;9676;50.916;13.352;2023-03-11T10:41:28;11.80;;;10.70;;
19087;SDS011;9676;50.916;13.352;2023-03-11T10:44:24;11.43;;;10.43;;
19087;SDS011;9676;50.916;13.352;2023-03-11T10:47:20;11.40;;;10.40;;
19087;SDS011;9676;50.916;13.352;2023-03-11T10:50:11;11.50;;;10.43;;
19087;SDS011;9676;50.916;13.352;2023-03-11T10:53:04;11.50;;;10.50;;
19087;SDS011;9676;50.916;13.352;2023-03-11T10:55:55;11.93;;;10.83;;
19087;SDS011;9676;50.916;13.352;2023-03-11T10:58:47;12.13;;;11.03;;
19087;SDS011;9676;50.916;13.352;2023-03-11T11:01:37;11.83;;;10.83;;
19087;SDS011;9676;50.916;13.352;2023-03-11T11:04:27;11.60;;;10.60;;
19087;SDS011;9676;50.916;13.352;2023-03-11T11:07:23;11.30;;;10.30;;
19087;SDS011;9676;50.916;13.352;2023-03-11T11:10:17;11.40;;;10.40;;
19087;SDS011;9676;50.916;13.352;2023-03-11T11:13:16;11.70;;;10.70;;
19087;SDS011;9676;50.916;13.352;2023-03-11T11:16:16;11.63;;;10.67;;
19087;SDS011;9676;50.916;13.352;2023-03-11T11:19:09;11.53;;;10.53;;
19087;SDS011;9676;50.916;13.352;2023-03-11T11:22:02;11.60;;;10.60;;
19087;SDS011;9676;50.916;13.352;2023-03-11T11:24:51;11.33;;;10.33;;
19087;SDS011;9676;50.916;13.352;2023-03-11T11:27:45;11.83;;;10.70;;
19087;SDS011;9676;50.916;13.352;2023-03-11T11:30:51;11.53;;;10.53;;
19087;SDS011;9676;50.916;13.352;2023-03-11T11:33:48;11.90;;;10.90;;
19087;SDS011;9676;50.916;13.352;2023-03-11T11:36:39;12.20;;;11.10;;
19087;SDS011;9676;50.916;13.352;2023-03-11T11:39:29;12.00;;;10.90;;
19087;SDS011;9676;50.916;13.352;2023-03-11T11:42:36;12.10;;;11.00;;
19087;SDS011;9676;50.916;13.352;2023-03-11T11:45:26;11.40;;;10.40;;
19087;SDS011;9676;50.916;13.352;2023-03-11T11:48:21;11.20;;;10.30;;
19087;SDS011;9676;50.916;13.352;2023-03-11T11:51:17;11.60;;;10.60;;
19087;SDS011;9676;50.916;13.352;2023-03-11T11:54:14;11.60;;;10.60;;
19087;SDS011;9676;50.916;13.352;2023-03-11T11:57:09;11.60;;;10.60;;
19087;SDS011;9676;50.916;13.352;2023-03-11T11:59:58;12.00;;;10.90;;
19087;SDS011;9676;50.916;13.352;2023-03-11T12:03:20;12.70;;;11.50;;
19087;SDS011;9676;50.916;13.352;2023-03-11T12:06:33;13.00;;;11.80;;
19087;SDS011;9676;50.916;13.352;2023-03-11T12:09:29;12.07;;;10.97;;
19087;SDS011;9676;50.916;13.352;2023-03-11T12:12:24;12.03;;;11.03;;
19087;SDS011;9676;50.916;13.352;2023-03-11T12:15:20;11.47;;;10.50;;
19087;SDS011;9676;50.916;13.352;2023-03-11T12:18:14;11.50;;;10.50;;
19087;SDS011;9676;50.916;13.352;2023-03-11T12:21:12;11.80;;;10.80;;
19087;SDS011;9676;50.916;13.352;2023-03-11T12:24:29;12.10;;;10.90;;
19087;SDS011;9676;50.916;13.352;2023-03-11T12:27:40;10.90;;;10.00;;
19087;SDS011;9676;50.916;13.352;2023-03-11T12:30:36;11.30;;;10.40;;
19087;SDS011;9676;50.916;13.352;2023-03-11T12:33:29;11.57;;;10.57;;
19087;SDS011;9676;50.916;13.352;2023-03-11T12:36:21;11.60;;;10.60;;
19087;SDS011;9676;50.916;13.352;2023-03-11T12:39:20;11.43;;;10.43;;
19087;SDS011;9676;50.916;13.352;2023-03-11T12:42:18;11.87;;;10.77;;
19087;SDS011;9676;50.916;13.352;2023-03-11T12:48:35;11.80;;;10.70;;
19087;SDS011;9676;50.916;13.352;2023-03-11T12:51:38;12.07;;;10.97;;
19087;SDS011;9676;50.916;13.352;2023-03-11T12:54:27;11.17;;;10.17;;
19087;SDS011;9676;50.916;13.352;2023-03-11T12:57:33;11.73;;;10.73;;
19087;SDS011;9676;50.916;13.352;2023-03-11T13:00:26;11.47;;;10.47;;
19087;SDS011;9676;50.916;13.352;2023-03-11T13:03:38;11.40;;;10.40;;
19087;SDS011;9676;50.916;13.352;2023-03-11T13:06:46;12.27;;;11.17;;
19087;SDS011;9676;50.916;13.352;2023-03-11T13:10:02;11.40;;;10.27;;
19087;SDS011;9676;50.916;13.352;2023-03-11T13:16:35;11.77;;;10.77;;
19087;SDS011;9676;50.916;13.352;2023-03-11T13:19:33;11.10;;;10.20;;
19087;SDS011;9676;50.916;13.352;2023-03-11T13:22:43;11.30;;;10.33;;
19087;SDS011;9676;50.916;13.352;2023-03-11T13:29:24;11.00;;;10.10;;
19087;SDS011;9676;50.916;13.352;2023-03-11T13:32:52;11.37;;;10.37;;
19087;SDS011;9676;50.916;13.352;2023-03-11T13:35:59;11.67;;;10.67;;
19087;SDS011;9676;50.916;13.352;2023-03-11T13:39:11;11.80;;;10.80;;
19087;SDS011;9676;50.916;13.352;2023-03-11T13:42:29;11.40;;;10.40;;
19087;SDS011;9676;50.916;13.352;2023-03-11T13:45:26;11.50;;;10.50;;
19087;SDS011;9676;50.916;13.352;2023-03-11T13:48:19;11.20;;;10.20;;
19087;SDS011;9676;50.916;13.352;2023-03-11T13:51:15;11.53;;;10.53;;
19087;SDS011;9676;50.916;13.352;2023-03-11T13:54:23;11.37;;;10.37;;
19087;SDS011;9676;50.916;13.352;2023-03-11T13:57:25;11.30;;;10.30;;
19087;SDS011;9676;50.916;13.352;2023-03-11T14:00:17;11.30;;;10.30;;
19087;SDS011;9676;50.916;13.352;2023-03-11T14:03:12;11.33;;;10.27;;
19087;SDS011;9676;50.916;13.352;2023-03-11T14:06:04;11.33;;;10.23;;
19087;SDS011;9676;50.916;13.352;2023-03-11T14:08:55;11.33;;;10.23;;
19087;SDS011;9676;50.916;13.352;2023-03-11T14:11:45;11.17;;;10.23;;
19087;SDS011;9676;50.916;13.352;2023-03-11T14:14:38;11.23;;;10.33;;
19087;SDS011;9676;50.916;13.352;2023-03-11T14:17:35;10.93;;;9.93;;
19087;SDS011;9676;50.916;13.352;2023-03-11T14:20:24;10.80;;;9.93;;
19087;SDS011;9676;50.916;13.352;2023-03-11T14:23:15;10.73;;;9.73;;
19087;SDS011;9676;50.916;13.352;2023-03-11T14:26:07;11.30;;;10.20;;
19087;SDS011;9676;50.916;13.352;2023-03-11T14:29:00;10.90;;;10.00;;
19087;SDS011;9676;50.916;13.352;2023-03-11T14:31:57;11.43;;;10.43;;
19087;SDS011;9676;50.916;13.352;2023-03-11T14:34:47;11.23;;;10.27;;
19087;SDS011;9676;50.916;13.352;2023-03-11T14:37:37;11.30;;;10.20;;
19087;SDS011;9676;50.916;13.352;2023-03-11T14:40:26;11.43;;;10.43;;
19087;SDS011;9676;50.916;13.352;2023-03-11T14:43:16;11.57;;;10.53;;
19087;SDS011;9676;50.916;13.352;2023-03-11T14:46:07;11.30;;;10.30;;
19087;SDS011;9676;50.916;13.352;2023-03-11T14:49:05;11.27;;;10.27;;
19087;SDS011;9676;50.916;13.352;2023-03-11T14:52:00;11.57;;;10.47;;
19087;SDS011;9676;50.916;13.352;2023-03-11T14:54:56;11.30;;;10.20;;
19087;SDS011;9676;50.916;13.352;2023-03-11T14:57:45;11.17;;;10.20;;
19087;SDS011;9676;50.916;13.352;2023-03-11T15:00:38;11.90;;;10.80;;
19087;SDS011;9676;50.916;13.352;2023-03-11T15:03:30;11.30;;;10.30;;
19087;SDS011;9676;50.916;13.352;2023-03-11T15:06:22;10.90;;;9.90;;
19087;SDS011;9676;50.916;13.352;2023-03-11T15:09:13;11.10;;;10.10;;
19087;SDS011;9676;50.916;13.352;2023-03-11T15:12:28;10.70;;;9.80;;
19087;SDS011;9676;50.916;13.352;2023-03-11T15:15:23;10.77;;;9.90;;
19087;SDS011;9676;50.916;13.352;2023-03-11T15:18:18;11.40;;;10.40;;
19087;SDS011;9676;50.916;13.352;2023-03-11T15:21:12;11.50;;;10.50;;
19087;SDS011;9676;50.916;13.352;2023-03-11T15:24:04;11.30;;;10.20;;
19087;SDS011;9676;50.916;13.352;2023-03-11T15:26:53;11.33;;;10.23;;
19087;SDS011;9676;50.916;13.352;2023-03-11T15:29:49;11.63;;;10.60;;
19087;SDS011;9676;50.916;13.352;2023-03-11T15:32:40;11.70;;;10.60;;
19087;SDS011;9676;50.916;13.352;2023-03-11T15:35:30;11.43;;;10.43;;
19087;SDS011;9676;50.916;13.352;2023-03-11T15:38:31;11.53;;;10.53;;
19087;SDS011;9676;50.916;13.352;2023-03-11T15:41:18;11.77;;;10.60;;
19087;SDS011;9676;50.916;13.352;2023-03-11T15:44:14;11.73;;;10.70;;
19087;SDS011;9676;50.916;13.352;2023-03-11T15:47:16;11.70;;;10.50;;
19087;SDS011;9676;50.916;13.352;2023-03-11T15:50:13;11.53;;;10.50;;
19087;SDS011;9676;50.916;13.352;2023-03-11T15:53:13;11.10;;;10.20;;
19087;SDS011;9676;50.916;13.352;2023-03-11T15:56:02;11.50;;;10.40;;
19087;SDS011;9676;50.916;13.352;2023-03-11T15:59:05;11.20;;;10.20;;
19087;SDS011;9676;50.916;13.352;2023-03-11T16:01:55;11.47;;;10.47;;
19087;SDS011;9676;50.916;13.352;2023-03-11T16:04:47;11.87;;;10.87;;
19087;SDS011;9676;50.916;13.352;2023-03-11T16:07:35;11.60;;;10.50;;
19087;SDS011;9676;50.916;13.352;2023-03-11T16:10:26;11.80;;;10.70;;
19087;SDS011;9676;50.916;13.352;2023-03-11T16:13:14;11.90;;;10.90;;
19087;SDS011;9676;50.916;13.352;2023-03-11T16:16:04;11.33;;;10.33;;
19087;SDS011;9676;50.916;13.352;2023-03-11T16:18:54;11.57;;;10.57;;
19087;SDS011;9676;50.916;13.352;2023-03-11T16:21:45;11.40;;;10.40;;
19087;SDS011;9676;50.916;13.352;2023-03-11T16:24:35;11.43;;;10.53;;
19087;SDS011;9676;50.916;13.352;2023-03-11T16:27:22;11.43;;;10.43;;
19087;SDS011;9676;50.916;13.352;2023-03-11T16:30:12;11.60;;;10.60;;
19087;SDS011;9676;50.916;13.352;2023-03-11T16:33:00;11.90;;;10.70;;
19087;SDS011;9676;50.916;13.352;2023-03-11T16:35:51;11.97;;;10.90;;
19087;SDS011;9676;50.916;13.352;2023-03-11T16:38:43;12.10;;;11.00;;
19087;SDS011;9676;50.916;13.352;2023-03-11T16:41:36;12.17;;;11.07;;
19087;SDS011;9676;50.916;13.352;2023-03-11T16:44:29;11.97;;;10.87;;
19087;SDS011;9676;50.916;13.352;2023-03-11T16:47:19;11.70;;;10.70;;
19087;SDS011;9676;50.916;13.352;2023-03-11T16:50:09;12.17;;;11.13;;
19087;SDS011;9676;50.916;13.352;2023-03-11T16:52:59;12.30;;;11.03;;
19087;SDS011;9676;50.916;13.352;2023-03-11T16:55:50;11.43;;;10.33;;
19087;SDS011;9676;50.916;13.352;2023-03-11T16:58:40;12.00;;;10.90;;
19087;SDS011;9676;50.916;13.352;2023-03-11T17:01:29;11.83;;;10.73;;
19087;SDS011;9676;50.916;13.352;2023-03-11T17:04:18;11.30;;;10.33;;
19087;SDS011;9676;50.916;13.352;2023-03-11T17:07:08;12.00;;;10.90;;
19087;SDS011;9676;50.916;13.352;2023-03-11T17:09:58;12.07;;;10.97;;